createdAt,value
2017-10-26T00:01:33.093Z,3.00
2017-10-26T00:04:00.686Z,2.93
2017-10-26T00:06:28.317Z,2.90
2017-10-26T00:08:55.909Z,3.30
2017-10-26T00:11:25.053Z,2.83
2017-10-26T00:13:52.641Z,3.03
2017-10-26T00:16:20.300Z,3.43
2017-10-26T00:18:47.892Z,3.30
2017-10-26T00:21:15.618Z,3.07
2017-10-26T00:23:43.303Z,3.20
2017-10-26T00:26:10.934Z,3.13
2017-10-26T00:28:38.538Z,3.47
2017-10-26T00:31:06.137Z,3.60
2017-10-26T00:33:33.774Z,4.27
2017-10-26T00:36:02.141Z,4.63
2017-10-26T00:38:29.780Z,6.97
2017-10-26T00:40:57.427Z,5.53
2017-10-26T00:43:25.021Z,7.40
2017-10-26T00:45:52.621Z,6.80
2017-10-26T00:48:20.279Z,7.10
2017-10-26T00:50:47.923Z,6.37
2017-10-26T00:53:16.286Z,6.77
2017-10-26T00:55:43.935Z,9.20
2017-10-26T00:58:14.316Z,10.10
2017-10-26T01:00:41.860Z,10.10
2017-10-26T01:03:10.211Z,10.40
2017-10-26T01:05:37.760Z,13.07
2017-10-26T01:08:05.341Z,12.53
2017-10-26T01:10:32.884Z,12.90
2017-10-26T01:13:00.430Z,10.27
2017-10-26T01:15:28.006Z,9.50
2017-10-26T01:17:55.601Z,10.53
2017-10-26T01:20:23.906Z,11.07
2017-10-26T01:22:51.447Z,15.93
2017-10-26T01:25:19.021Z,15.30
2017-10-26T01:27:46.694Z,21.60
2017-10-26T01:30:14.288Z,16.90
2017-10-26T01:32:41.828Z,14.87
2017-10-26T01:35:09.374Z,12.20
2017-10-26T01:37:36.965Z,10.03
2017-10-26T01:40:04.508Z,11.23
2017-10-26T01:42:32.052Z,12.40
2017-10-26T01:44:59.639Z,15.43
2017-10-26T01:47:27.213Z,17.87
2017-10-26T01:49:54.757Z,19.27
2017-10-26T01:52:22.327Z,15.97
2017-10-26T01:54:49.870Z,15.93
2017-10-26T01:57:17.445Z,17.90
2017-10-26T01:59:45.029Z,15.70
2017-10-26T02:02:13.337Z,18.80
2017-10-26T02:04:40.882Z,16.33
2017-10-26T02:07:09.226Z,14.33
2017-10-26T02:09:36.773Z,16.17
2017-10-26T02:12:04.345Z,13.70
2017-10-26T02:14:31.936Z,14.47
2017-10-26T02:17:00.246Z,13.33
2017-10-26T02:19:27.787Z,12.40
2017-10-26T02:21:55.369Z,13.00
2017-10-26T02:24:22.925Z,14.60
2017-10-26T02:26:50.493Z,17.23
2017-10-26T02:29:30.017Z,15.80
2017-10-26T02:31:57.556Z,16.97
2017-10-26T02:34:25.909Z,17.30
2017-10-26T02:36:54.959Z,17.40
2017-10-26T02:39:22.507Z,20.20
2017-10-26T02:41:50.117Z,17.30
2017-10-26T02:44:17.661Z,17.07
2017-10-26T02:46:45.206Z,16.60
2017-10-26T02:49:12.862Z,16.50
2017-10-26T02:51:40.433Z,16.90
2017-10-26T02:54:07.977Z,24.57
2017-10-26T02:56:35.545Z,28.90
2017-10-26T02:59:03.133Z,33.97
2017-10-26T03:01:30.716Z,34.60
2017-10-26T03:03:59.143Z,24.50
2017-10-26T03:06:26.720Z,17.77
2017-10-26T03:08:54.303Z,46.90
2017-10-26T03:11:21.840Z,30.80
2017-10-26T03:13:49.478Z,26.70
2017-10-26T03:16:17.052Z,23.67
2017-10-26T03:18:44.606Z,19.93
2017-10-26T03:21:12.182Z,20.43
2017-10-26T03:23:39.724Z,18.57
2017-10-26T03:26:07.316Z,25.93
2017-10-26T03:28:34.860Z,20.37
2017-10-26T03:31:02.409Z,16.80
2017-10-26T03:33:30.002Z,15.07
2017-10-26T03:35:57.541Z,16.13
2017-10-26T03:38:25.082Z,15.80
2017-10-26T03:40:52.661Z,16.10
2017-10-26T03:43:20.212Z,16.67
2017-10-26T03:45:47.794Z,17.73
2017-10-26T03:48:15.386Z,18.83
2017-10-26T03:50:43.745Z,16.60
2017-10-26T03:53:12.061Z,16.20
2017-10-26T03:55:39.649Z,15.37
2017-10-26T03:58:07.224Z,17.30
2017-10-26T04:00:34.765Z,17.50
2017-10-26T04:03:02.339Z,16.10
2017-10-26T04:05:29.890Z,18.17
2017-10-26T04:07:57.468Z,18.43
2017-10-26T04:10:25.014Z,18.03
2017-10-26T04:12:52.595Z,18.67
2017-10-26T04:15:20.147Z,17.70
2017-10-26T04:17:47.690Z,18.23
2017-10-26T04:20:15.417Z,17.13
2017-10-26T04:22:42.955Z,14.93
2017-10-26T04:25:10.508Z,15.77
2017-10-26T04:27:38.087Z,18.03
2017-10-26T04:30:06.520Z,23.33
2017-10-26T04:32:34.058Z,21.80
2017-10-26T04:35:01.645Z,21.87
2017-10-26T04:37:29.184Z,21.67
2017-10-26T04:39:56.762Z,21.17
2017-10-26T04:42:24.302Z,24.07
2017-10-26T04:44:51.880Z,21.73
2017-10-26T04:47:19.422Z,21.60
2017-10-26T04:49:47.006Z,20.90
2017-10-26T04:52:14.558Z,21.83
2017-10-26T04:54:42.132Z,22.03
2017-10-26T04:57:09.676Z,25.57
2017-10-26T04:59:37.258Z,26.60
2017-10-26T05:02:04.810Z,23.70
2017-10-26T05:04:32.411Z,20.80
2017-10-26T05:07:00.727Z,24.30
2017-10-26T05:09:28.269Z,19.67
2017-10-26T05:11:55.848Z,22.27
2017-10-26T05:14:23.385Z,22.37
2017-10-26T05:16:50.964Z,21.50
2017-10-26T05:19:18.630Z,20.70
2017-10-26T05:21:46.212Z,20.13
2017-10-26T05:24:13.761Z,18.63
2017-10-26T05:26:41.346Z,20.10
2017-10-26T05:29:08.896Z,19.80
2017-10-26T05:31:36.501Z,19.90
2017-10-26T05:34:04.045Z,19.43
2017-10-26T05:36:32.386Z,17.67
2017-10-26T05:38:59.937Z,17.70
2017-10-26T05:41:27.520Z,16.77
2017-10-26T05:43:55.061Z,17.27
2017-10-26T05:46:22.640Z,17.37
2017-10-26T05:48:50.176Z,16.83
2017-10-26T05:51:17.757Z,16.70
2017-10-26T05:53:45.325Z,14.30
2017-10-26T05:56:12.911Z,13.27
2017-10-26T05:58:40.456Z,12.00
2017-10-26T06:01:08.812Z,9.70
2017-10-26T06:03:36.363Z,10.10
2017-10-26T06:06:03.942Z,9.67
2017-10-26T06:08:31.525Z,7.80
2017-10-26T06:10:59.881Z,8.07
2017-10-26T06:13:27.433Z,6.93
2017-10-26T06:15:55.007Z,6.97
2017-10-26T06:18:22.550Z,8.77
2017-10-26T06:20:50.103Z,10.07
2017-10-26T06:23:17.687Z,12.83
2017-10-26T06:25:45.286Z,15.07
2017-10-26T06:28:12.859Z,11.37
2017-10-26T06:30:40.414Z,7.50
2017-10-26T06:33:07.991Z,5.90
2017-10-26T06:35:35.536Z,6.07
2017-10-26T06:38:03.106Z,5.47
2017-10-26T06:40:30.644Z,5.53
2017-10-26T06:42:58.223Z,6.23
2017-10-26T06:45:25.770Z,10.93
2017-10-26T06:47:53.363Z,6.57
2017-10-26T06:50:20.932Z,5.90
2017-10-26T06:52:48.546Z,5.67
2017-10-26T06:55:16.089Z,5.33
2017-10-26T06:57:44.429Z,5.20
2017-10-26T07:00:11.972Z,5.30
2017-10-26T07:02:39.549Z,5.20
2017-10-26T07:05:07.085Z,4.73
2017-10-26T07:07:34.740Z,5.47
2017-10-26T07:10:02.276Z,4.83
2017-10-26T07:12:29.859Z,4.53
2017-10-26T07:14:57.397Z,4.57
2017-10-26T07:17:24.980Z,4.10
2017-10-26T07:19:52.521Z,5.23
2017-10-26T07:22:20.099Z,4.10
2017-10-26T07:24:47.655Z,4.50
2017-10-26T07:27:15.244Z,4.00
2017-10-26T07:29:42.780Z,3.70
2017-10-26T07:32:10.353Z,3.23
2017-10-26T07:34:37.893Z,3.13
2017-10-26T07:37:05.491Z,4.97
2017-10-26T07:39:33.040Z,4.17
2017-10-26T07:42:00.658Z,3.30
2017-10-26T07:44:28.202Z,3.53
2017-10-26T07:46:56.559Z,3.70
2017-10-26T07:49:24.886Z,3.70
2017-10-26T07:51:52.462Z,4.23
2017-10-26T07:54:20.118Z,4.67
2017-10-26T07:56:47.781Z,4.00
2017-10-26T07:59:15.332Z,5.50
2017-10-26T08:01:42.921Z,5.20
2017-10-26T08:04:10.466Z,4.90
2017-10-26T08:06:38.052Z,3.77
2017-10-26T08:09:05.600Z,4.17
2017-10-26T08:11:33.189Z,3.60
2017-10-26T08:14:01.490Z,2.23
2017-10-26T08:16:29.065Z,2.70
2017-10-26T08:18:56.600Z,2.60
2017-10-26T08:21:24.917Z,2.83
2017-10-26T08:23:52.498Z,2.63
2017-10-26T08:26:20.058Z,1.93
2017-10-26T08:28:47.640Z,1.57
2017-10-26T08:31:15.180Z,2.27
2017-10-26T08:33:42.758Z,2.07
2017-10-26T08:36:10.297Z,1.97
2017-10-26T08:38:37.880Z,1.90
2017-10-26T08:41:05.416Z,2.10
2017-10-26T08:43:32.987Z,2.23
2017-10-26T08:46:00.529Z,2.27
2017-10-26T08:48:28.105Z,2.50
2017-10-26T08:50:55.638Z,1.70
2017-10-26T08:53:23.216Z,1.97
2017-10-26T08:55:50.763Z,1.40
2017-10-26T08:58:18.369Z,1.73
2017-10-26T09:00:46.669Z,2.80
2017-10-26T09:03:14.254Z,2.73
2017-10-26T09:05:41.800Z,2.23
2017-10-26T09:08:09.392Z,4.67
2017-10-26T09:10:36.920Z,1.80
2017-10-26T09:13:07.588Z,1.60
2017-10-26T09:15:35.125Z,1.80
2017-10-26T09:18:02.698Z,1.53
2017-10-26T09:20:30.238Z,1.63
2017-10-26T09:22:57.840Z,3.37
2017-10-26T09:25:25.387Z,3.70
2017-10-26T09:27:52.992Z,2.80
2017-10-26T09:30:21.288Z,2.13
2017-10-26T09:33:03.817Z,1.67
2017-10-26T09:35:31.370Z,1.40
2017-10-26T09:37:58.953Z,1.80
2017-10-26T09:40:26.494Z,1.80
2017-10-26T09:42:54.092Z,1.57
2017-10-26T09:45:21.633Z,1.43
2017-10-26T09:47:49.173Z,1.50
2017-10-26T09:50:16.753Z,2.00
2017-10-26T09:52:45.119Z,1.57
2017-10-26T09:55:12.688Z,1.43
2017-10-26T09:57:40.235Z,1.80
2017-10-26T10:00:07.830Z,1.70
2017-10-26T10:02:36.164Z,1.80
2017-10-26T10:05:03.948Z,1.63
2017-10-26T10:07:31.483Z,1.40
2017-10-26T10:09:59.059Z,1.80
2017-10-26T10:12:26.597Z,1.97
2017-10-26T10:14:54.177Z,2.87
2017-10-26T10:17:21.703Z,2.00
2017-10-26T10:19:50.046Z,2.20
2017-10-26T10:22:17.589Z,2.40
2017-10-26T10:24:45.236Z,2.20
2017-10-26T10:27:12.909Z,2.80
2017-10-26T10:29:40.484Z,3.10
2017-10-26T10:32:08.029Z,4.00
2017-10-26T10:34:35.610Z,3.77
2017-10-26T10:37:03.151Z,3.70
2017-10-26T10:39:30.683Z,3.13
2017-10-26T10:41:58.282Z,4.00
2017-10-26T10:44:25.830Z,3.17
2017-10-26T10:46:53.409Z,4.27
2017-10-26T10:49:20.941Z,3.43
2017-10-26T10:51:48.908Z,3.30
2017-10-26T10:54:16.452Z,3.63
2017-10-26T10:56:44.030Z,3.63
2017-10-26T10:59:17.284Z,3.47
2017-10-26T11:01:45.631Z,4.57
2017-10-26T11:04:13.170Z,3.30
2017-10-26T11:06:40.932Z,3.27
2017-10-26T11:09:08.483Z,9.50
2017-10-26T11:11:36.022Z,3.77
2017-10-26T11:14:03.601Z,3.23
2017-10-26T11:16:31.128Z,2.93
2017-10-26T11:18:59.438Z,3.00
2017-10-26T11:21:27.031Z,2.90
2017-10-26T11:23:55.337Z,3.17
2017-10-26T11:26:23.635Z,2.70
2017-10-26T11:28:51.221Z,2.70
2017-10-26T11:31:18.763Z,3.37
2017-10-26T11:33:46.341Z,3.00
2017-10-26T11:36:13.876Z,2.80
2017-10-26T11:38:41.451Z,3.00
2017-10-26T11:41:08.992Z,3.00
2017-10-26T11:43:36.553Z,3.20
2017-10-26T11:46:04.098Z,3.13
2017-10-26T11:48:32.452Z,3.30
2017-10-26T11:50:59.987Z,4.00
2017-10-26T11:53:27.521Z,3.33
2017-10-26T11:55:55.105Z,3.20
2017-10-26T11:58:22.637Z,3.30
2017-10-26T12:00:50.173Z,2.70
2017-10-26T12:03:18.504Z,3.00
2017-10-26T12:05:46.044Z,2.50
2017-10-26T12:08:13.623Z,3.00
2017-10-26T12:10:41.153Z,3.27
2017-10-26T12:13:08.702Z,3.47
2017-10-26T12:15:36.271Z,3.93
2017-10-26T12:18:03.848Z,3.70
2017-10-26T12:20:31.407Z,4.13
2017-10-26T12:22:58.984Z,4.50
2017-10-26T12:25:26.517Z,3.43
2017-10-26T12:27:54.098Z,3.80
2017-10-26T12:30:21.656Z,3.87
2017-10-26T12:32:49.237Z,3.53
2017-10-26T12:35:16.827Z,3.60
2017-10-26T12:37:45.129Z,3.47
2017-10-26T12:40:12.697Z,3.60
2017-10-26T12:42:40.269Z,2.70
2017-10-26T12:45:07.849Z,3.50
2017-10-26T12:47:35.414Z,3.10
2017-10-26T12:50:02.977Z,2.47
2017-10-26T12:52:30.545Z,3.17
2017-10-26T12:54:59.581Z,2.83
2017-10-26T12:57:27.152Z,3.17
2017-10-26T12:59:54.685Z,2.97
2017-10-26T13:02:23.011Z,2.70
2017-10-26T13:04:50.594Z,2.90
2017-10-26T13:07:18.933Z,3.37
2017-10-26T13:09:46.469Z,3.10
2017-10-26T13:12:14.809Z,3.30
2017-10-26T13:14:42.345Z,3.90
2017-10-26T13:17:09.920Z,3.93
2017-10-26T13:19:37.501Z,4.87
2017-10-26T13:22:05.040Z,4.13
2017-10-26T13:24:32.609Z,4.37
2017-10-26T13:27:00.149Z,4.30
2017-10-26T13:29:27.723Z,4.27
2017-10-26T13:31:55.260Z,3.97
2017-10-26T13:34:22.796Z,4.50
2017-10-26T13:36:50.364Z,4.53
2017-10-26T13:39:17.902Z,4.47
2017-10-26T13:41:46.252Z,4.77
2017-10-26T13:44:13.785Z,4.90
2017-10-26T13:46:41.321Z,3.70
2017-10-26T13:49:08.882Z,3.90
2017-10-26T13:51:36.421Z,3.70
2017-10-26T13:54:04.766Z,3.90
2017-10-26T13:56:33.843Z,4.00
2017-10-26T13:59:01.380Z,3.33
2017-10-26T14:01:28.944Z,4.53
2017-10-26T14:03:56.476Z,3.90
2017-10-26T14:06:24.829Z,3.70
2017-10-26T14:08:52.369Z,3.90
2017-10-26T14:11:19.916Z,3.63
2017-10-26T14:13:47.496Z,3.40
2017-10-26T14:16:15.029Z,3.90
2017-10-26T14:18:42.564Z,3.53
2017-10-26T14:21:10.133Z,4.07
2017-10-26T14:23:37.709Z,3.37
2017-10-26T14:26:05.294Z,4.00
2017-10-26T14:28:32.823Z,3.93
2017-10-26T14:31:00.367Z,3.37
2017-10-26T14:33:27.957Z,3.70
2017-10-26T14:35:55.483Z,3.60
2017-10-26T14:38:23.035Z,4.20
2017-10-26T14:40:51.383Z,4.70
2017-10-26T14:43:18.911Z,4.97
2017-10-26T14:45:46.480Z,5.20
2017-10-26T14:48:14.018Z,4.93
2017-10-26T14:50:41.588Z,5.83
2017-10-26T14:53:09.128Z,5.30
2017-10-26T14:55:36.718Z,5.30
2017-10-26T14:58:04.258Z,5.90
2017-10-26T15:00:31.796Z,5.73
2017-10-26T15:02:59.369Z,4.80
2017-10-26T15:05:26.908Z,5.90
2017-10-26T15:07:55.238Z,5.20
2017-10-26T15:10:22.782Z,5.37
2017-10-26T15:12:50.351Z,5.10
2017-10-26T15:15:17.912Z,6.13
2017-10-26T15:17:45.482Z,5.77
2017-10-26T15:20:13.022Z,5.77
2017-10-26T15:22:40.630Z,6.10
2017-10-26T15:25:08.936Z,5.50
2017-10-26T15:27:36.608Z,6.13
2017-10-26T15:30:04.148Z,5.83
2017-10-26T15:32:31.692Z,5.57
2017-10-26T15:35:00.039Z,5.77
2017-10-26T15:37:27.574Z,6.07
2017-10-26T15:39:55.117Z,5.60
2017-10-26T15:42:22.685Z,5.53
2017-10-26T15:44:50.217Z,5.53
2017-10-26T15:47:18.634Z,5.40
2017-10-26T15:49:46.166Z,5.83
2017-10-26T15:52:14.471Z,5.67
2017-10-26T15:54:42.041Z,5.60
2017-10-26T15:57:09.572Z,6.43
2017-10-26T15:59:37.145Z,6.90
2017-10-26T16:02:04.685Z,8.03
2017-10-26T16:04:32.270Z,6.97
2017-10-26T16:06:59.805Z,8.30
2017-10-26T16:09:28.129Z,8.97
2017-10-26T16:11:55.710Z,9.73
2017-10-26T16:14:23.247Z,10.30
2017-10-26T16:16:50.789Z,9.10
2017-10-26T16:19:18.364Z,10.20
2017-10-26T16:21:45.902Z,10.80
2017-10-26T16:24:13.473Z,10.73
2017-10-26T16:26:41.018Z,11.97
2017-10-26T16:29:08.593Z,12.40
2017-10-26T16:31:36.165Z,14.00
2017-10-26T16:34:03.750Z,13.60
2017-10-26T16:36:32.053Z,13.80
2017-10-26T16:39:00.408Z,13.47
2017-10-26T16:41:27.944Z,12.80
2017-10-26T16:43:55.515Z,11.60
2017-10-26T16:46:23.087Z,14.50
2017-10-26T16:48:51.424Z,14.23
2017-10-26T16:51:19.014Z,14.00
2017-10-26T16:53:46.553Z,14.20
2017-10-26T16:56:14.084Z,14.97
2017-10-26T16:58:41.662Z,15.50
2017-10-26T17:01:09.207Z,15.97
2017-10-26T17:03:36.781Z,16.13
2017-10-26T17:06:04.321Z,18.47
2017-10-26T17:08:31.898Z,15.60
2017-10-26T17:10:59.546Z,15.40
2017-10-26T17:13:27.132Z,17.77
2017-10-26T17:15:56.499Z,19.27
2017-10-26T17:18:25.012Z,18.70
2017-10-26T17:20:53.826Z,18.17
2017-10-26T17:23:21.418Z,19.10
2017-10-26T17:26:03.001Z,19.53
2017-10-26T17:28:30.611Z,18.73
2017-10-26T17:30:58.280Z,19.50
2017-10-26T17:33:28.925Z,17.30
2017-10-26T17:35:56.568Z,18.80
2017-10-26T17:38:24.106Z,18.93
2017-10-26T17:40:51.686Z,18.80
2017-10-26T17:43:21.310Z,18.27
2017-10-26T17:48:56.648Z,18.80
2017-10-26T17:51:24.224Z,17.47
2017-10-26T17:53:51.761Z,16.27
2017-10-26T17:56:19.341Z,17.70
2017-10-26T17:58:46.918Z,18.97
2017-10-26T18:01:14.459Z,18.77
2017-10-26T18:03:42.027Z,20.03
2017-10-26T18:06:09.574Z,18.63
2017-10-26T18:08:37.148Z,18.73
2017-10-26T18:11:04.733Z,18.37
2017-10-26T18:13:32.310Z,17.93
2017-10-26T18:16:00.614Z,16.60
2017-10-26T18:18:28.198Z,18.70
2017-10-26T18:20:55.736Z,16.27
2017-10-26T18:23:23.318Z,16.53
2017-10-26T18:25:50.861Z,16.53
2017-10-26T18:28:18.446Z,17.83
2017-10-26T18:30:45.985Z,17.90
2017-10-26T18:33:13.565Z,16.77
2017-10-26T18:35:41.099Z,15.20
2017-10-26T18:38:08.684Z,15.40
2017-10-26T18:40:36.220Z,16.50
2017-10-26T18:43:04.021Z,16.47
2017-10-26T18:45:31.563Z,17.77
2017-10-26T18:47:59.108Z,16.60
2017-10-26T18:50:26.688Z,17.97
2017-10-26T18:52:54.226Z,19.33
2017-10-26T18:55:21.802Z,18.10
2017-10-26T18:57:49.351Z,15.80
2017-10-26T19:00:16.935Z,17.80
2017-10-26T19:02:44.473Z,16.17
2017-10-26T19:05:12.053Z,15.70
2017-10-26T19:07:39.598Z,16.07
2017-10-26T19:10:07.172Z,18.73
2017-10-26T19:12:34.734Z,17.50
2017-10-26T19:15:02.317Z,16.63
2017-10-26T19:17:30.631Z,18.00
2017-10-26T19:19:58.230Z,20.93
2017-10-26T19:22:25.773Z,16.97
2017-10-26T19:24:53.349Z,16.67
2017-10-26T19:27:20.893Z,17.63
2017-10-26T19:29:48.476Z,16.60
2017-10-26T19:32:16.014Z,18.03
2017-10-26T19:34:43.594Z,16.83
2017-10-26T19:37:11.133Z,17.27
2017-10-26T19:39:38.821Z,17.43
2017-10-26T19:42:06.360Z,19.90
2017-10-26T19:44:33.895Z,18.70
2017-10-26T19:47:02.239Z,19.93
2017-10-26T19:49:29.794Z,20.00
2017-10-26T19:51:57.376Z,19.53
2017-10-26T19:54:25.680Z,18.67
2017-10-26T19:56:53.262Z,18.70
2017-10-26T19:59:20.805Z,17.40
2017-10-26T20:01:48.390Z,18.37
2017-10-26T20:04:15.936Z,19.37
2017-10-26T20:06:43.522Z,18.80
2017-10-26T20:09:11.071Z,18.50
2017-10-26T20:11:38.654Z,18.87
2017-10-26T20:14:06.284Z,18.53
2017-10-26T20:16:33.872Z,20.03
2017-10-26T20:19:01.416Z,17.50
2017-10-26T20:21:28.989Z,16.43
2017-10-26T20:23:56.535Z,18.23
2017-10-26T20:26:24.114Z,17.13
2017-10-26T20:28:51.665Z,17.57
2017-10-26T20:31:19.304Z,17.57
2017-10-26T20:33:46.848Z,17.30
2017-10-26T20:36:14.398Z,16.43
2017-10-26T20:38:41.984Z,15.53
2017-10-26T20:41:09.525Z,16.17
2017-10-26T20:43:37.111Z,15.23
2017-10-26T20:46:04.697Z,15.10
2017-10-26T20:48:32.245Z,14.30
2017-10-26T20:51:05.608Z,15.20
2017-10-26T20:53:38.780Z,13.47
2017-10-26T20:56:12.825Z,12.93
2017-10-26T20:58:59.278Z,13.73
2017-10-26T21:01:32.534Z,11.30
2017-10-26T21:04:05.678Z,11.87
2017-10-26T21:06:34.036Z,13.10
2017-10-26T21:09:07.220Z,13.70
2017-10-26T21:11:55.712Z,12.00
2017-10-26T21:14:28.129Z,13.17
2017-10-26T21:16:55.721Z,14.07
2017-10-26T21:19:24.032Z,12.70
2017-10-26T21:21:51.617Z,13.17
2017-10-26T21:24:19.157Z,14.60
2017-10-26T21:26:46.831Z,14.03
2017-10-26T21:29:14.377Z,13.73
2017-10-26T21:31:41.974Z,12.73
2017-10-26T21:34:09.525Z,12.50
2017-10-26T21:36:37.069Z,14.17
2017-10-26T21:39:04.656Z,12.20
2017-10-26T21:41:32.196Z,13.20
2017-10-26T21:43:59.857Z,12.63
2017-10-26T21:46:27.487Z,13.83
2017-10-26T21:48:55.073Z,14.47
2017-10-26T21:51:22.627Z,13.07
2017-10-26T21:53:50.218Z,11.27
2017-10-26T21:56:17.770Z,10.70
2017-10-26T21:58:45.361Z,10.13
2017-10-26T22:01:13.674Z,10.23
2017-10-26T22:03:41.250Z,9.43
2017-10-26T22:06:08.787Z,10.20
2017-10-26T22:08:36.367Z,8.20
2017-10-26T22:11:03.914Z,7.97
2017-10-26T22:13:31.449Z,7.80
2017-10-26T22:15:59.797Z,8.47
2017-10-26T22:18:27.348Z,7.73
2017-10-26T22:20:54.934Z,7.90
2017-10-26T22:23:22.473Z,6.57
2017-10-26T22:25:50.059Z,8.63
2017-10-26T22:28:17.595Z,6.70
2017-10-26T22:30:45.179Z,6.40
2017-10-26T22:33:13.497Z,7.20
2017-10-26T22:35:41.081Z,6.30
2017-10-26T22:38:08.631Z,6.90
2017-10-26T22:40:36.217Z,6.50
2017-10-26T22:43:03.756Z,6.00
2017-10-26T22:45:31.334Z,5.80
2017-10-26T22:47:58.867Z,5.80
2017-10-26T22:50:26.442Z,5.50
2017-10-26T22:52:53.986Z,5.47
2017-10-26T22:55:21.582Z,5.60
2017-10-26T22:57:49.134Z,5.77
2017-10-26T23:00:16.716Z,5.80
2017-10-26T23:02:45.030Z,5.20
2017-10-26T23:05:12.609Z,5.03
2017-10-26T23:07:40.146Z,4.87
2017-10-26T23:10:07.745Z,5.47
2017-10-26T23:12:35.278Z,4.70
2017-10-26T23:15:02.860Z,5.27
2017-10-26T23:17:30.401Z,4.50
2017-10-26T23:19:57.985Z,5.17
2017-10-26T23:22:25.529Z,5.00
2017-10-26T23:24:53.104Z,4.73
2017-10-26T23:27:20.640Z,4.60
2017-10-26T23:29:48.227Z,5.40
2017-10-26T23:32:15.771Z,5.00
2017-10-26T23:34:43.350Z,5.67
2017-10-26T23:37:10.889Z,4.83
2017-10-26T23:39:38.466Z,4.97
2017-10-26T23:42:06.109Z,5.10
2017-10-26T23:44:33.690Z,5.83
2017-10-26T23:47:01.246Z,4.93
2017-10-26T23:49:28.825Z,4.90
2017-10-26T23:51:56.371Z,5.10
2017-10-26T23:54:23.947Z,4.93
2017-10-26T23:56:51.482Z,4.80
2017-10-26T23:59:19.062Z,4.80
